Date,TemperatureHighF,TemperatureAvgF,TemperatureLowF,DewpointHighF,DewpointAvgF,DewpointLowF,HumidityHigh,HumidityAvg,HumidityLow,PressureMaxIn,PressureMinIn,WindSpeedMaxMPH,WindSpeedAvgMPH,GustSpeedMaxMPH,PrecipitationSumIn
2013-1-1,50.2,48.4,46.1,46.7,39.3,29.0,88,72,48,30.08,29.91,4,1,4,0.22
2013-1-2,50.0,45.2,41.6,47.0,41.5,37.5,91,87,80,30.17,29.89,5,0,5,0.25
2013-1-3,45.5,41.3,35.5,38.2,36.0,31.1,87,82,71,30.23,30.12,4,0,4,0.00
2013-1-4,49.1,39.9,30.8,31.2,28.6,23.0,86,66,43,30.29,30.16,8,1,8,0.00
2013-1-5,48.6,40.1,31.5,31.5,26.7,22.1,70,59,46,30.37,30.24,4,0,4,0.00
2013-1-6,50.0,44.2,40.0,38.7,36.0,30.9,81,73,64,30.24,30.03,3,0,3,0.01
2013-1-7,51.1,41.7,33.1,35.5,32.1,28.4,84,70,51,30.41,30.14,4,1,8,0.00
2013-1-8,53.5,42.7,32.0,41.1,34.8,26.9,85,74,57,30.44,30.34,3,0,3,0.00
2013-1-9,65.9,51.7,38.7,52.9,43.7,34.3,86,75,60,30.42,30.32,6,0,6,0.00
2013-1-10,64.4,54.9,48.4,48.7,44.3,37.3,84,68,54,30.51,30.38,7,1,7,0.00
2013-1-11,52.6,49.0,44.1,49.7,42.4,32.1,90,79,55,30.42,30.12,5,0,5,0.22
2013-1-12,68.8,58.2,51.5,62.7,54.7,48.5,93,88,81,30.14,30.07,3,0,3,0.00
2013-1-13,73.3,63.2,56.2,64.2,57.9,53.6,93,83,68,30.13,30.02,5,1,5,0.00
2013-1-14,68.8,64.0,59.4,62.7,59.1,55.1,89,84,80,30.14,30.05,3,0,4,0.00
2013-1-15,62.8,48.0,45.4,59.9,45.0,42.9,92,89,85,30.21,30.03,6,2,6,0.00
2013-1-16,50.9,47.2,45.0,48.6,45.1,42.6,94,92,91,30.05,29.94,5,0,5,0.11
2013-1-17,51.8,47.2,34.2,49.9,44.9,31.5,94,92,89,30.11,29.87,14,2,14,0.93
2013-1-18,45.5,38.0,32.4,34.6,30.6,23.9,92,76,45,30.50,30.11,8,1,8,0.14
2013-1-19,51.8,37.8,28.3,37.0,29.8,24.6,87,74,50,30.48,30.12,5,0,5,0.00
2013-1-20,63.0,49.9,39.4,41.3,35.5,32.0,79,59,38,30.12,29.94,8,2,8,0.00
2013-1-21,58.0,46.0,32.9,36.6,31.1,22.7,81,58,39,30.06,29.83,6,1,6,0.00
2013-1-22,45.7,35.9,28.3,23.9,11.0,3.6,44,36,24,30.26,29.92,11,2,11,0.00
2013-1-23,40.9,31.4,22.9,16.9,12.0,4.9,61,45,33,30.35,30.03,8,1,8,0.00
2013-1-24,37.4,32.6,25.4,25.4,15.4,5.9,68,49,29,30.49,29.93,12,2,12,0.00
2013-1-25,29.3,26.4,23.0,24.7,14.5,6.0,83,62,45,30.50,30.08,3,0,3,0.03
2013-1-26,38.2,32.3,29.0,32.5,27.3,23.9,85,82,74,30.37,30.06,4,0,4,0.02
2013-1-27,40.0,32.5,25.7,29.4,26.0,22.3,88,77,63,30.57,30.36,5,1,5,0.00
2013-1-28,52.4,42.6,33.1,46.7,35.5,26.8,83,76,70,30.47,30.19,5,1,5,0.02
2013-1-29,71.8,59.2,49.3,58.3,51.4,44.7,86,76,59,30.20,30.04,8,2,8,0.00
2013-1-30,71.6,66.7,59.4,63.7,60.8,54.3,90,81,73,30.05,29.35,16,3,16,0.01
2013-1-31,68.8,49.4,38.5,63.4,33.8,22.7,86,56,34,29.99,29.38,15,4,15,0.41